Time;durP1;ratioP1;P1;durP2;ratioP2;P2;SDS_P1;SDS_P2;PMS_P1;PMS_P2;Temp;Humidity;BMP_temperature;BMP_pressure;BME280_temperature;BME280_humidity;BME280_pressure;Samples;Min_cycle;Max_cycle;Signal;HPM_P1;HPM_P2
2022/12/28 00:02:06;;;;;;;;;9.25;5.25;;;;;10.08;68.09;101634.97;5062818;28;45204;-58
2022/12/28 00:04:31;;;;;;;;;8.00;7.00;;;;;10.20;68.16;101647.25;5062833;28;45417;-58
2022/12/28 00:06:56;;;;;;;;;8.50;8.50;;;;;10.14;68.11;101640.25;5063023;28;45500;-58
2022/12/28 00:09:21;;;;;;;;;5.25;3.75;;;;;10.12;68.20;101636.72;5063025;28;45426;-58
2022/12/28 00:11:47;;;;;;;;;6.75;6.00;;;;;10.17;67.85;101626.25;5062761;28;45299;-58
2022/12/28 00:14:12;;;;;;;;;5.75;4.00;;;;;10.17;67.90;101632.34;5062628;28;46144;-57
2022/12/28 00:16:40;;;;;;;;;6.00;6.00;;;;;10.18;67.99;101615.72;5062993;28;45362;-58
2022/12/28 00:19:14;;;;;;;;;6.75;5.00;;;;;10.19;67.97;101616.63;5062655;28;45363;-57
2022/12/28 00:21:40;;;;;;;;;6.50;5.00;;;;;10.18;67.88;101614.84;5062760;28;45544;-58
2022/12/28 00:24:06;;;;;;;;;7.00;5.00;;;;;10.24;68.12;101612.25;5062288;28;45443;-58
2022/12/28 00:26:33;;;;;;;;;5.00;5.00;;;;;10.22;68.18;101603.47;5077822;28;45240;-58
2022/12/28 00:28:59;;;;;;;;;7.25;5.75;;;;;10.17;68.60;101595.56;5061211;28;45194;-58
2022/12/28 00:31:24;;;;;;;;;4.50;4.50;;;;;10.19;68.00;101606.13;5062408;28;45560;-57
2022/12/28 00:33:50;;;;;;;;;6.50;6.00;;;;;10.17;67.97;101595.56;5062046;28;46213;-57
2022/12/28 00:36:15;;;;;;;;;5.25;5.00;;;;;10.17;68.17;101569.31;5062461;28;45234;-57
2022/12/28 00:38:42;;;;;;;;;7.75;6.75;;;;;10.16;67.80;101585.06;5062372;28;45170;-57
2022/12/28 00:41:07;;;;;;;;;8.00;6.75;;;;;10.18;68.00;101581.56;5062147;28;45351;-58
2022/12/28 00:43:33;;;;;;;;;6.25;6.25;;;;;10.21;68.43;101573.72;5076319;28;46151;-57
2022/12/28 00:45:58;;;;;;;;;6.50;5.75;;;;;10.20;68.29;101564.06;5062881;27;45359;-58
2022/12/28 00:48:24;;;;;;;;;7.00;6.00;;;;;10.17;68.22;101566.69;5062154;28;45355;-57
2022/12/28 00:50:49;;;;;;;;;10.00;7.00;;;;;10.23;68.05;101571.09;5062246;28;45406;-57
2022/12/28 00:53:14;;;;;;;;;4.00;4.00;;;;;10.23;68.13;101550.06;5061766;28;45245;-58
2022/12/28 00:55:41;;;;;;;;;6.75;5.75;;;;;10.28;68.03;101561.44;5062156;28;45302;-57
2022/12/28 00:58:07;;;;;;;;;4.75;4.75;;;;;10.29;68.24;101565.84;5062042;28;45603;-58
2022/12/28 01:00:33;;;;;;;;;7.00;5.25;;;;;10.27;68.12;101559.69;5062078;28;45320;-58
2022/12/28 01:02:59;;;;;;;;;4.50;4.50;;;;;10.31;68.04;101564.06;5061561;28;46135;-57
2022/12/28 01:05:25;;;;;;;;;8.50;7.25;;;;;10.28;67.93;101553.56;5061896;28;45189;-57
2022/12/28 01:07:50;;;;;;;;;6.00;5.00;;;;;10.29;68.26;101555.31;5061983;28;45266;-58
2022/12/28 01:10:16;;;;;;;;;5.25;5.25;;;;;10.25;68.11;101550.94;5062144;28;45588;-58
2022/12/28 01:12:42;;;;;;;;;8.25;7.25;;;;;10.27;68.16;101549.19;5061702;28;46186;-57
2022/12/28 01:15:09;;;;;;;;;4.00;3.50;;;;;10.29;68.46;101541.28;5061932;28;45248;-58
2022/12/28 01:17:35;;;;;;;;;6.75;5.75;;;;;10.32;68.21;101543.94;5061688;28;45362;-58
2022/12/28 01:20:00;;;;;;;;;7.00;4.50;;;;;10.37;67.92;101537.81;5061773;28;45395;-57
2022/12/28 01:22:26;;;;;;;;;5.50;5.50;;;;;10.27;68.32;101540.44;5061709;28;46609;-58
2022/12/28 01:24:52;;;;;;;;;6.00;4.00;;;;;10.39;68.34;101533.44;5061605;28;45225;-58
2022/12/28 01:27:18;;;;;;;;;7.00;4.75;;;;;10.42;68.37;101542.22;5061358;28;45224;-58
2022/12/28 01:29:44;;;;;;;;;6.00;4.25;;;;;10.42;68.15;101534.34;5062472;27;45330;-58
2022/12/28 01:32:09;;;;;;;;;5.50;5.00;;;;;10.40;68.26;101534.31;5061177;28;45446;-58
2022/12/28 01:34:35;;;;;;;;;7.00;5.75;;;;;10.41;68.32;101530.81;5061758;28;45404;-58
2022/12/28 01:37:00;;;;;;;;;6.50;5.25;;;;;10.47;68.37;101535.22;5061495;28;45210;-57
2022/12/28 01:39:25;;;;;;;;;5.75;5.00;;;;;10.45;68.19;101532.56;5077215;28;45502;-57
2022/12/28 01:41:51;;;;;;;;;5.50;4.50;;;;;10.44;68.30;101543.06;5061053;28;45977;-58
2022/12/28 01:44:16;;;;;;;;;4.25;4.00;;;;;10.44;68.31;101540.44;5061560;28;45650;-58
2022/12/28 01:46:46;;;;;;;;;5.50;5.00;;;;;10.47;68.44;101528.19;5061436;28;45342;-58
2022/12/28 01:49:15;;;;;;;;;4.50;4.50;;;;;10.44;68.25;101529.94;5076893;28;46104;-58
2022/12/28 01:51:48;;;;;;;;;5.25;4.00;;;;;10.49;68.32;101530.81;5060884;28;45276;-58
2022/12/28 01:54:14;;;;;;;;;6.00;5.00;;;;;10.51;68.28;101524.66;5060789;28;45315;-58
2022/12/28 01:56:41;;;;;;;;;4.75;3.50;;;;;10.53;68.45;101548.34;5061179;28;45260;-57
2022/12/28 01:59:07;;;;;;;;;6.00;5.25;;;;;10.52;68.32;101531.69;5061230;28;45453;-58
2022/12/28 02:01:33;;;;;;;;;3.50;2.00;;;;;10.59;68.33;101527.31;5060806;28;45295;-58
2022/12/28 02:03:59;;;;;;;;;6.00;6.00;;;;;10.59;68.29;101524.69;5060937;28;45329;-58
2022/12/28 02:06:24;;;;;;;;;6.75;6.25;;;;;10.64;68.46;101515.03;5060970;28;45316;-58
2022/12/28 02:08:55;;;;;;;;;6.75;4.50;;;;;10.61;68.32;101503.66;5061129;28;45484;-57
2022/12/28 02:11:21;;;;;;;;;5.00;5.00;;;;;10.61;68.51;101517.66;5060758;28;45269;-58
2022/12/28 02:13:50;;;;;;;;;7.00;5.00;;;;;10.60;68.46;101508.00;5060883;28;45315;-57
2022/12/28 02:16:15;;;;;;;;;8.50;5.50;;;;;10.66;68.29;101513.25;5060863;27;45330;-57
2022/12/28 02:18:42;;;;;;;;;5.25;5.25;;;;;10.68;68.22;101508.00;5060598;28;45580;-58
2022/12/28 02:21:08;;;;;;;;;6.25;5.75;;;;;10.67;68.49;101514.16;5060596;28;45417;-58
2022/12/28 02:24:04;;;;;;;;;5.00;5.00;;;;;10.63;68.31;101508.03;5060813;28;45264;-58
2022/12/28 02:26:37;;;;;;;;;6.75;6.00;;;;;10.70;68.36;101512.38;5060695;28;45513;-58
2022/12/28 02:29:17;;;;;;;;;5.25;5.25;;;;;10.64;68.32;101507.16;5060553;28;45186;-58
2022/12/28 02:32:01;;;;;;;;;5.75;5.75;;;;;10.65;68.54;101506.25;5060558;28;45362;-58
2022/12/28 02:34:41;;;;;;;;;7.00;5.50;;;;;10.70;68.43;101503.59;5060495;28;45387;-58
2022/12/28 02:37:20;;;;;;;;;7.25;5.50;;;;;10.72;68.26;101501.88;5060508;28;45378;-58
2022/12/28 02:39:51;;;;;;;;;4.00;4.00;;;;;10.70;68.32;101490.47;5060634;28;45159;-58
2022/12/28 02:42:17;;;;;;;;;5.00;5.00;;;;;10.73;68.30;101498.38;5060279;28;45469;-58
2022/12/28 02:50:42;;;;;;;;;9.75;5.50;;;;;10.68;68.27;101474.72;5037960;28;45356;-57
2022/12/28 02:53:32;;;;;;;;;3.75;2.25;;;;;10.68;68.65;101479.97;5037408;28;45622;-57
2022/12/28 02:56:13;;;;;;;;;5.00;4.00;;;;;10.69;68.38;101479.09;5053713;28;45385;-57
2022/12/28 02:59:05;;;;;;;;;5.25;4.25;;;;;10.78;68.46;101474.66;5060258;28;45220;-58
2022/12/28 03:01:36;;;;;;;;;4.75;4.75;;;;;10.71;68.36;101465.94;5060066;28;45326;-57
2022/12/28 03:04:26;;;;;;;;;4.75;4.00;;;;;10.72;68.63;101473.81;5059786;28;45388;-58
2022/12/28 03:09:45;;;;;;;;;7.25;5.00;;;;;10.71;68.61;101485.19;5060155;28;45312;-58
2022/12/28 03:12:25;;;;;;;;;5.25;4.75;;;;;10.78;68.44;101469.41;5060014;28;45362;-58
2022/12/28 03:14:59;;;;;;;;;6.25;6.25;;;;;10.76;68.38;101471.19;5060014;28;45252;-58
2022/12/28 03:31:28;;;;;;;;;6.00;5.00;;;;;10.78;68.64;101453.63;5048255;28;45248;-60
2022/12/28 03:34:05;;;;;;;;;4.50;4.50;;;;;10.84;68.41;101446.63;5059441;28;45485;-58
2022/12/28 03:36:39;;;;;;;;;5.75;4.25;;;;;10.80;68.56;101452.75;5059604;28;46480;-58
2022/12/28 03:39:13;;;;;;;;;4.00;4.00;;;;;10.82;68.81;101451.00;5059683;28;45364;-58
2022/12/28 03:44:41;;;;;;;;;4.00;4.00;;;;;10.75;68.13;101433.50;5059844;28;45323;-57
2022/12/28 03:47:11;;;;;;;;;4.00;4.00;;;;;10.82;68.57;101445.75;5059075;28;45306;-58
2022/12/28 03:49:38;;;;;;;;;7.00;5.25;;;;;10.82;68.44;101432.59;5059544;28;45358;-58
2022/12/28 03:52:05;;;;;;;;;7.50;5.00;;;;;10.73;68.48;101430.88;5059447;28;45334;-58
2022/12/28 03:54:30;;;;;;;;;4.25;4.00;;;;;10.80;68.69;101430.84;5059591;28;45513;-58
2022/12/28 03:56:56;;;;;;;;;5.00;5.00;;;;;10.83;68.40;101426.47;5059331;28;45371;-58
2022/12/28 03:59:21;;;;;;;;;5.75;4.25;;;;;10.83;68.38;101438.72;5075235;28;45399;-58
2022/12/28 04:01:46;;;;;;;;;5.75;5.75;;;;;10.79;68.50;101422.09;5059305;28;45306;-58
2022/12/28 04:04:11;;;;;;;;;3.50;2.25;;;;;10.77;68.36;101425.59;5075074;28;45596;-58
2022/12/28 04:06:37;;;;;;;;;4.00;4.00;;;;;10.79;68.53;101432.63;5059257;28;45227;-57
2022/12/28 04:09:04;;;;;;;;;7.00;5.25;;;;;10.80;68.50;101425.59;5058236;28;45304;-58
2022/12/28 04:11:29;;;;;;;;;5.50;4.50;;;;;10.87;68.38;101419.44;5059305;28;45280;-58
2022/12/28 04:13:54;;;;;;;;;6.25;5.00;;;;;10.89;68.37;101415.03;5059333;28;45558;-58
2022/12/28 04:16:20;;;;;;;;;5.25;5.25;;;;;10.84;68.33;101406.28;5059140;28;46229;-58
2022/12/28 04:18:46;;;;;;;;;6.00;5.00;;;;;10.92;68.38;101401.88;5061981;28;45220;-57
2022/12/28 04:21:13;;;;;;;;;6.25;5.50;;;;;10.87;68.27;101401.03;5062718;28;45253;-58
2022/12/28 04:23:38;;;;;;;;;7.25;5.25;;;;;10.91;68.34;101405.38;5062795;28;45311;-58
2022/12/28 04:26:06;;;;;;;;;6.25;5.00;;;;;10.96;68.29;101405.38;5048662;28;45311;-58
2022/12/28 04:28:32;;;;;;;;;5.00;4.25;;;;;10.93;68.21;101394.84;5062526;28;45323;-58
2022/12/28 04:30:58;;;;;;;;;4.75;4.75;;;;;10.93;68.38;101394.84;5062628;28;45223;-58
2022/12/28 04:33:24;;;;;;;;;4.00;3.00;;;;;10.95;68.49;101391.31;5062337;28;45422;-57
2022/12/28 04:35:50;;;;;;;;;5.50;5.00;;;;;10.91;68.29;101389.59;5077951;27;46844;-58
2022/12/28 04:38:16;;;;;;;;;6.75;5.50;;;;;10.95;68.36;101387.84;5062446;28;45308;-58
2022/12/28 04:40:41;;;;;;;;;5.00;3.75;;;;;10.95;68.23;101372.06;5062582;28;45278;-57
2022/12/28 04:43:07;;;;;;;;;5.50;4.00;;;;;10.89;68.36;101384.38;5062229;28;45355;-58
2022/12/28 04:45:32;;;;;;;;;4.00;2.00;;;;;10.93;68.49;101381.69;5062236;28;46358;-58
2022/12/28 04:47:58;;;;;;;;;4.75;3.75;;;;;10.99;68.40;101377.31;5062487;27;45358;-58
2022/12/28 04:50:25;;;;;;;;;5.25;4.50;;;;;11.00;68.22;101380.78;5062335;28;45306;-58
2022/12/28 04:52:50;;;;;;;;;5.00;5.00;;;;;10.95;68.38;101383.44;5062139;28;45331;-58
2022/12/28 04:55:16;;;;;;;;;3.00;3.00;;;;;10.89;68.45;101383.47;5062006;28;45489;-58
2022/12/28 04:57:45;;;;;;;;;3.00;3.00;;;;;10.94;68.37;101378.19;5062086;28;45410;-58
2022/12/28 05:00:12;;;;;;;;;5.00;5.00;;;;;10.95;68.32;101382.56;5062265;28;46151;-58
2022/12/28 05:02:38;;;;;;;;;5.50;3.50;;;;;10.98;68.19;101375.56;5061700;28;45493;-58
2022/12/28 05:05:03;;;;;;;;;3.50;3.00;;;;;10.93;68.28;101369.44;5061858;28;45255;-57
2022/12/28 05:07:29;;;;;;;;;3.50;3.00;;;;;10.97;68.49;101370.28;5062002;28;45378;-57
2022/12/28 05:09:54;;;;;;;;;6.00;4.75;;;;;10.94;68.42;101347.50;5061002;28;45269;-58
2022/12/28 05:12:20;;;;;;;;;4.75;4.00;;;;;10.93;68.42;101356.28;5061948;28;45561;-58
2022/12/28 05:14:46;;;;;;;;;4.25;4.25;;;;;10.88;68.38;101355.44;5061747;28;46606;-57
2022/12/28 05:17:11;;;;;;;;;5.75;5.25;;;;;10.85;68.64;101350.19;5060261;28;45367;-58
2022/12/28 05:19:36;;;;;;;;;4.50;3.00;;;;;10.90;68.53;101353.66;5062274;28;45380;-57
2022/12/28 05:22:02;;;;;;;;;3.75;3.00;;;;;10.84;68.55;101351.06;5061973;28;45211;-58
2022/12/28 05:24:27;;;;;;;;;4.00;4.00;;;;;10.85;68.52;101348.44;5057162;28;46290;-58
2022/12/28 05:26:53;;;;;;;;;4.00;3.00;;;;;10.77;68.62;101346.72;5052472;28;45624;-57
2022/12/28 05:29:18;;;;;;;;;4.25;3.75;;;;;10.85;68.73;101347.56;5060970;28;45231;-57
2022/12/28 05:31:44;;;;;;;;;4.00;3.25;;;;;10.82;68.48;101340.56;5077130;28;45458;-57
2022/12/28 05:34:09;;;;;;;;;9.00;8.00;;;;;10.80;68.65;101336.19;5061616;28;47204;-57
2022/12/28 05:36:36;;;;;;;;;10.25;9.75;;;;;10.86;68.59;101337.03;5061628;28;45220;-57
2022/12/28 05:39:02;;;;;;;;;7.00;5.00;;;;;10.75;68.90;101324.84;5061718;28;45398;-57
2022/12/28 05:41:29;;;;;;;;;6.00;4.75;;;;;10.77;68.62;101326.56;5061287;28;45574;-57
2022/12/28 05:43:57;;;;;;;;;5.25;5.25;;;;;10.77;68.94;101325.69;5076907;28;48463;-57
2022/12/28 05:46:29;;;;;;;;;7.50;6.00;;;;;10.83;68.58;101329.19;5061306;28;45201;-57
2022/12/28 05:48:55;;;;;;;;;6.75;5.75;;;;;10.77;68.69;101331.84;5061172;28;45493;-57
2022/12/28 05:51:22;;;;;;;;;6.00;4.50;;;;;10.81;68.78;101330.94;5076699;28;45337;-58
2022/12/28 05:53:48;;;;;;;;;4.75;4.00;;;;;10.71;68.65;101322.22;5061187;28;45197;-57
2022/12/28 05:56:16;;;;;;;;;6.00;4.25;;;;;10.71;68.95;101321.34;5061312;28;45448;-57
2022/12/28 05:58:43;;;;;;;;;4.75;4.25;;;;;10.69;68.83;101318.75;5061356;27;45468;-57
2022/12/28 06:01:13;;;;;;;;;6.25;4.50;;;;;10.70;68.93;101317.88;5061161;28;45345;-57
2022/12/28 06:03:40;;;;;;;;;5.50;4.25;;;;;10.78;68.74;101314.28;5060940;28;46211;-57
2022/12/28 06:06:07;;;;;;;;;4.25;3.50;;;;;10.76;68.71;101306.44;5060828;28;45239;-57
2022/12/28 06:08:33;;;;;;;;;7.00;6.50;;;;;10.76;68.80;101318.72;5061390;28;45302;-57
2022/12/28 06:11:01;;;;;;;;;4.00;4.00;;;;;10.81;68.90;101312.53;5060859;28;45315;-57
2022/12/28 06:13:27;;;;;;;;;6.50;4.75;;;;;10.72;68.71;101304.69;5060955;28;46229;-57
2022/12/28 06:15:52;;;;;;;;;5.25;4.50;;;;;10.68;69.02;101303.84;5060850;28;45201;-57
2022/12/28 06:18:17;;;;;;;;;7.00;5.25;;;;;10.68;69.03;101295.97;5061015;28;45323;-57
2022/12/28 06:20:43;;;;;;;;;8.00;5.50;;;;;10.73;68.85;101293.31;5060800;28;45154;-57
2022/12/28 06:23:08;;;;;;;;;7.00;5.00;;;;;10.71;68.83;101298.56;5060909;28;45200;-57
2022/12/28 06:25:33;;;;;;;;;4.75;4.50;;;;;10.76;68.91;101300.31;5060595;28;45265;-57
2022/12/28 06:27:59;;;;;;;;;4.00;4.00;;;;;10.76;68.98;101287.16;5060803;28;45264;-57
2022/12/28 06:30:24;;;;;;;;;4.50;4.50;;;;;10.72;69.18;101289.78;5076382;28;45264;-57
2022/12/28 06:32:49;;;;;;;;;3.50;3.50;;;;;10.75;68.86;101280.16;5060585;28;45359;-57
2022/12/28 06:35:14;;;;;;;;;9.25;9.00;;;;;10.76;68.93;101274.88;5060675;28;45161;-57
2022/12/28 06:37:40;;;;;;;;;3.75;3.00;;;;;10.76;68.65;101280.13;5060802;28;45262;-57
2022/12/28 06:40:06;;;;;;;;;5.00;5.00;;;;;10.69;69.03;101262.66;5060586;28;45550;-56
2022/12/28 06:42:31;;;;;;;;;8.00;7.50;;;;;10.64;68.90;101264.44;5060508;28;47010;-56
2022/12/28 06:44:56;;;;;;;;;4.00;4.00;;;;;10.57;68.95;101251.31;5060569;28;45324;-57
2022/12/28 06:47:22;;;;;;;;;4.25;4.25;;;;;10.62;69.02;101264.44;5060554;28;45437;-57
2022/12/28 06:49:47;;;;;;;;;7.75;5.25;;;;;10.64;69.19;101262.69;5060519;28;45360;-57
2022/12/28 06:52:12;;;;;;;;;5.25;5.00;;;;;10.64;69.03;101243.41;5060222;28;45350;-57
2022/12/28 06:54:37;;;;;;;;;7.75;5.00;;;;;10.64;69.25;101253.91;5060445;28;45373;-56
2022/12/28 06:57:03;;;;;;;;;2.50;2.00;;;;;10.70;68.93;101241.63;5060327;28;45313;-56
2022/12/28 06:59:28;;;;;;;;;4.50;4.50;;;;;10.71;69.02;101250.38;5060308;28;45311;-56
2022/12/28 07:01:53;;;;;;;;;5.25;3.50;;;;;10.66;69.04;101239.88;5060051;28;45322;-56
2022/12/28 07:04:19;;;;;;;;;2.75;2.75;;;;;10.69;69.24;101242.50;5060299;28;45262;-56
2022/12/28 07:06:44;;;;;;;;;5.50;5.00;;;;;10.70;69.04;101248.63;5060389;28;45249;-58
2022/12/28 07:09:13;;;;;;;;;6.25;6.25;;;;;10.71;68.87;101243.34;5060195;28;45314;-56
2022/12/28 07:11:38;;;;;;;;;8.50;7.50;;;;;10.72;68.97;101228.47;5058641;28;47215;-56
2022/12/28 07:14:03;;;;;;;;;3.75;3.75;;;;;10.70;69.11;101236.38;5060123;28;45250;-56
2022/12/28 07:16:29;;;;;;;;;6.25;5.00;;;;;10.73;69.18;101235.47;5060182;28;45397;-56
2022/12/28 07:18:57;;;;;;;;;6.75;6.00;;;;;10.69;68.95;101234.63;5059866;28;45232;-56
2022/12/28 07:21:27;;;;;;;;;5.00;3.75;;;;;10.63;69.14;101236.41;5059651;28;45407;-56
2022/12/28 07:23:54;;;;;;;;;5.75;5.00;;;;;10.55;69.00;101215.44;5059972;28;45216;-58
2022/12/28 07:26:22;;;;;;;;;5.50;5.25;;;;;10.63;69.04;101221.53;5059729;28;45462;-59
2022/12/28 07:28:50;;;;;;;;;5.00;4.25;;;;;10.68;69.19;101219.72;5059805;28;45521;-57
2022/12/28 07:31:24;;;;;;;;;6.50;3.75;;;;;10.75;68.85;101207.41;5059847;28;46209;-57
2022/12/28 07:33:52;;;;;;;;;5.50;4.00;;;;;10.68;68.99;101198.69;5059458;28;45315;-57
2022/12/28 07:36:19;;;;;;;;;4.50;4.00;;;;;10.69;69.12;101213.59;5059823;27;45353;-57
2022/12/28 07:38:44;;;;;;;;;11.50;6.50;;;;;10.61;69.00;101196.13;5059642;28;45268;-57
2022/12/28 07:41:12;;;;;;;;;5.00;2.00;;;;;10.59;69.15;101190.91;5059483;28;45930;-57
2022/12/28 07:43:38;;;;;;;;;5.75;5.00;;;;;10.66;69.31;101203.09;5059598;28;45284;-57
2022/12/28 07:46:15;;;;;;;;;6.50;6.00;;;;;10.63;69.11;101207.50;5059793;28;45485;-57
2022/12/28 07:48:42;;;;;;;;;4.00;4.00;;;;;10.68;69.16;101206.59;5059315;28;45549;-57
2022/12/28 07:51:13;;;;;;;;;7.00;6.25;;;;;10.77;68.98;101194.25;5059515;28;46491;-57
2022/12/28 07:53:40;;;;;;;;;4.25;4.00;;;;;10.69;69.09;101192.56;5062209;28;45393;-57
2022/12/28 07:56:06;;;;;;;;;5.25;5.25;;;;;10.76;69.29;101197.78;5063154;28;45298;-57
2022/12/28 07:58:31;;;;;;;;;5.25;5.25;;;;;10.78;69.19;101194.25;5063013;28;45630;-57
2022/12/28 08:01:12;;;;;;;;;8.25;6.50;;;;;10.80;69.27;101183.72;5078815;28;47003;-57
2022/12/28 08:03:38;;;;;;;;;8.50;8.00;;;;;10.84;69.26;101185.44;5062956;28;45378;-57
2022/12/28 08:06:10;;;;;;;;;9.50;8.50;;;;;10.85;69.04;101189.81;5062914;28;45497;-57
2022/12/28 08:08:41;;;;;;;;;5.75;4.75;;;;;10.76;69.22;101180.25;5062962;28;45518;-57
2022/12/28 08:11:10;;;;;;;;;8.50;6.25;;;;;10.84;69.37;101191.56;5062422;28;47081;-57
2022/12/28 08:13:37;;;;;;;;;7.00;5.00;;;;;10.85;69.30;101187.19;5062973;28;45180;-57
2022/12/28 08:16:04;;;;;;;;;9.25;8.25;;;;;10.82;69.47;101182.81;5062806;28;45288;-57
2022/12/28 08:18:29;;;;;;;;;4.75;4.50;;;;;10.79;69.40;101192.50;5062535;28;45520;-57
2022/12/28 08:21:03;;;;;;;;;6.50;6.00;;;;;10.70;69.22;101177.66;5062742;28;45386;-57
2022/12/28 08:23:29;;;;;;;;;6.25;6.25;;;;;10.73;69.58;101164.50;5062749;28;45354;-57
2022/12/28 08:25:55;;;;;;;;;3.25;3.25;;;;;10.83;69.53;101170.53;5062375;28;45431;-57
2022/12/28 08:28:20;;;;;;;;;8.00;8.00;;;;;10.86;69.38;101152.97;5062378;28;45315;-57
2022/12/28 08:30:46;;;;;;;;;4.75;3.50;;;;;10.73;69.03;101161.88;5062553;28;45374;-57
2022/12/28 08:33:11;;;;;;;;;4.00;4.00;;;;;10.75;69.41;101153.97;5078174;28;45311;-57
2022/12/28 08:35:36;;;;;;;;;4.25;4.25;;;;;10.72;69.51;101174.13;5062545;28;45353;-57
2022/12/28 08:38:02;;;;;;;;;5.50;5.00;;;;;10.77;69.12;101152.19;5062622;28;45450;-57
2022/12/28 08:40:28;;;;;;;;;7.75;5.50;;;;;10.75;69.47;101156.59;5077984;28;46435;-57
2022/12/28 08:42:58;;;;;;;;;6.25;6.25;;;;;10.80;69.19;101155.66;5062408;28;45220;-57
2022/12/28 08:45:25;;;;;;;;;7.25;7.00;;;;;10.80;69.16;101157.44;5061290;28;45288;-57
2022/12/28 08:47:50;;;;;;;;;7.00;6.00;;;;;10.77;69.34;101146.91;5061950;28;45466;-57
2022/12/28 08:50:15;;;;;;;;;8.50;5.75;;;;;10.78;69.48;101156.56;5062107;28;46141;-57
2022/12/28 08:52:40;;;;;;;;;6.00;5.00;;;;;10.83;69.32;101146.88;5062055;28;45456;-57
2022/12/28 08:55:06;;;;;;;;;6.75;5.25;;;;;10.85;69.44;101142.47;5062429;28;46770;-57
2022/12/28 08:57:32;;;;;;;;;9.00;5.00;;;;;10.86;69.27;101149.50;5062049;28;45390;-57
2022/12/28 08:59:57;;;;;;;;;8.25;5.25;;;;;10.83;69.36;101149.50;5062011;28;45293;-57
2022/12/28 09:02:23;;;;;;;;;5.75;4.75;;;;;10.80;69.57;101146.91;5062156;28;45153;-57
2022/12/28 09:04:48;;;;;;;;;6.50;6.00;;;;;10.91;69.30;101142.44;5076461;28;45269;-57
2022/12/28 09:07:13;;;;;;;;;5.50;5.50;;;;;10.88;69.58;101140.69;5062037;28;45208;-57
2022/12/28 09:09:39;;;;;;;;;5.00;5.00;;;;;10.98;69.70;101141.50;5061876;28;46123;-57
2022/12/28 09:12:06;;;;;;;;;5.50;5.50;;;;;10.96;69.29;101138.00;5062014;28;45157;-57
2022/12/28 09:14:31;;;;;;;;;6.00;5.00;;;;;10.96;69.41;101127.47;5062134;28;45154;-57
2022/12/28 09:16:57;;;;;;;;;4.75;4.50;;;;;10.95;69.26;101125.72;5061761;28;45266;-57
2022/12/28 09:19:22;;;;;;;;;6.00;5.25;;;;;10.93;69.73;101122.25;5061679;28;45377;-57
2022/12/28 09:21:51;;;;;;;;;6.75;6.75;;;;;11.06;69.42;101118.59;5061844;28;45257;-57
2022/12/28 09:24:16;;;;;;;;;4.75;4.75;;;;;10.98;69.42;101135.34;5077401;28;45469;-56
2022/12/28 09:26:41;;;;;;;;;7.75;6.75;;;;;11.05;69.60;101124.75;5061410;28;45295;-57
2022/12/28 09:29:10;;;;;;;;;8.25;5.50;;;;;11.02;69.61;101116.91;5061531;28;46105;-56
2022/12/28 09:31:37;;;;;;;;;10.00;4.75;;;;;11.02;69.71;101101.13;5061438;28;45305;-58
2022/12/28 09:34:04;;;;;;;;;5.50;5.50;;;;;11.09;69.29;101107.19;5062291;27;45511;-58
2022/12/28 09:36:35;;;;;;;;;5.25;5.00;;;;;11.11;69.35;101100.16;5061563;28;45469;-58
2022/12/28 09:39:13;;;;;;;;;8.75;6.00;;;;;11.10;69.39;101094.91;5061362;28;46181;-58
2022/12/28 09:41:47;;;;;;;;;6.00;5.00;;;;;11.10;69.45;101098.41;5061346;28;45316;-58
2022/12/28 09:44:15;;;;;;;;;5.50;5.50;;;;;11.10;69.22;101102.81;5061506;28;45336;-58
2022/12/28 09:47:02;;;;;;;;;7.00;7.00;;;;;11.13;69.62;101101.03;5061019;28;45454;-58
2022/12/28 09:50:06;;;;;;;;;5.50;4.50;;;;;11.17;69.38;101102.72;5061295;28;45474;-58
2022/12/28 09:52:51;;;;;;;;;5.50;5.00;;;;;11.24;69.48;101107.91;5042556;28;45373;-58
2022/12/28 09:55:18;;;;;;;;;7.25;6.00;;;;;11.34;69.27;101105.16;5061544;28;45335;-58
2022/12/28 09:57:54;;;;;;;;;5.25;5.00;;;;;11.24;69.33;101111.41;5061354;28;45536;-58
2022/12/28 10:00:25;;;;;;;;;5.50;4.00;;;;;11.21;69.36;101106.19;5061265;28;47191;-58
2022/12/28 10:02:57;;;;;;;;;7.00;6.25;;;;;11.26;69.31;101103.50;5060938;28;45448;-58
2022/12/28 10:05:23;;;;;;;;;7.00;4.25;;;;;11.34;69.39;101102.50;5061213;28;45361;-56
2022/12/28 10:07:51;;;;;;;;;4.50;4.50;;;;;11.31;69.23;101101.72;5076474;28;45611;-56
2022/12/28 10:10:19;;;;;;;;;5.00;4.75;;;;;11.36;69.08;101103.38;5061023;28;46286;-56
2022/12/28 10:12:46;;;;;;;;;3.00;2.25;;;;;11.29;69.35;101083.28;5060885;28;45229;-56
2022/12/28 10:15:13;;;;;;;;;5.75;3.75;;;;;11.30;69.42;101082.41;5059537;28;45275;-56
2022/12/28 10:17:39;;;;;;;;;5.75;5.25;;;;;11.42;69.19;101119.97;5060546;28;45602;-58
2022/12/28 10:20:06;;;;;;;;;5.00;4.00;;;;;11.47;68.87;101091.84;5076650;28;47221;-58
2022/12/28 10:22:40;;;;;;;;;5.00;5.00;;;;;11.55;68.75;101087.38;5060882;28;45404;-58
2022/12/28 10:25:15;;;;;;;;;5.25;5.00;;;;;11.54;68.85;101073.31;5060822;27;45405;-58
2022/12/28 10:27:42;;;;;;;;;4.25;4.25;;;;;11.54;69.19;101081.22;5060319;28;45397;-58
2022/12/28 10:30:28;;;;;;;;;5.75;5.25;;;;;11.57;68.96;101075.03;5060766;28;45244;-58
2022/12/28 10:32:55;;;;;;;;;5.50;4.00;;;;;11.64;68.80;101052.16;5060429;28;45410;-58
2022/12/28 10:35:23;;;;;;;;;6.00;5.25;;;;;11.67;68.74;101058.25;5060745;28;45284;-58
2022/12/28 10:37:49;;;;;;;;;4.75;4.75;;;;;11.62;68.90;101056.56;5060643;28;45514;-58
2022/12/28 10:40:27;;;;;;;;;5.75;4.25;;;;;11.65;68.79;101065.31;5060433;28;47160;-58
2022/12/28 10:42:54;;;;;;;;;3.75;3.00;;;;;11.68;68.62;101051.22;5060554;28;45453;-58
2022/12/28 10:45:48;;;;;;;;;4.50;4.00;;;;;11.74;68.48;101063.44;5060526;28;45222;-57
2022/12/28 10:48:37;;;;;;;;;7.00;5.75;;;;;11.73;68.52;101067.81;5053953;28;45343;-58
2022/12/28 10:51:09;;;;;;;;;5.50;5.00;;;;;11.75;68.51;101067.78;5060166;28;46410;-58
2022/12/28 10:53:37;;;;;;;;;4.25;3.50;;;;;11.73;68.36;101045.91;5060055;28;45390;-58
2022/12/28 10:56:05;;;;;;;;;5.00;5.00;;;;;11.80;68.25;101042.31;5060373;28;45348;-58
2022/12/28 10:58:31;;;;;;;;;4.75;4.75;;;;;11.78;68.35;101030.91;5060104;28;45303;-59
2022/12/28 11:01:16;;;;;;;;;6.00;5.00;;;;;11.70;68.50;101026.63;5060873;27;45379;-58
2022/12/28 11:03:43;;;;;;;;;5.75;4.75;;;;;11.76;68.52;101027.41;5060162;28;45358;-58
2022/12/28 11:06:08;;;;;;;;;5.00;4.00;;;;;11.79;68.33;101020.34;5060146;28;45219;-58
2022/12/28 11:08:35;;;;;;;;;3.75;3.75;;;;;11.83;68.09;101027.28;5060233;28;45161;-57
2022/12/28 11:11:00;;;;;;;;;4.50;4.50;;;;;11.82;67.87;101009.78;5059909;28;46375;-58
2022/12/28 11:13:26;;;;;;;;;3.00;3.00;;;;;11.81;67.94;101018.56;5060186;28;45418;-58
2022/12/28 11:15:51;;;;;;;;;4.50;4.50;;;;;11.81;68.21;101013.31;5060254;28;45182;-58
2022/12/28 11:18:18;;;;;;;;;4.00;4.00;;;;;11.85;67.88;101003.59;5060054;28;45270;-58
2022/12/28 11:20:46;;;;;;;;;7.75;7.00;;;;;11.81;68.09;100997.50;5059871;28;45394;-58
2022/12/28 11:23:24;;;;;;;;;6.25;5.25;;;;;11.84;68.05;100979.00;5059982;28;45481;-58
2022/12/28 11:25:51;;;;;;;;;7.00;4.75;;;;;11.86;67.92;100971.97;5059808;28;45429;-58
2022/12/28 11:28:21;;;;;;;;;4.50;4.50;;;;;11.85;68.10;100949.16;5058965;28;45264;-58
2022/12/28 11:30:48;;;;;;;;;4.00;4.00;;;;;11.85;68.02;100951.78;5075419;27;48087;-58
2022/12/28 11:33:39;;;;;;;;;4.00;4.00;;;;;11.86;67.97;100955.28;5059540;28;45355;-58
2022/12/28 11:36:11;;;;;;;;;3.75;3.75;;;;;11.91;68.01;100934.16;5059920;28;45302;-58
2022/12/28 11:38:42;;;;;;;;;4.50;3.50;;;;;12.00;67.69;100949.84;5059659;28;45346;-58
2022/12/28 11:41:38;;;;;;;;;4.00;3.75;;;;;11.96;68.02;100945.50;5059487;28;46434;-58
2022/12/28 11:44:04;;;;;;;;;4.50;3.75;;;;;11.98;68.00;100935.81;5041527;28;45561;-58
2022/12/28 11:46:29;;;;;;;;;5.00;5.00;;;;;12.02;67.73;100934.88;5058152;28;45348;-58
2022/12/28 11:49:14;;;;;;;;;4.25;3.25;;;;;11.99;68.25;100920.00;5059473;28;45564;-58
2022/12/28 11:51:40;;;;;;;;;4.50;4.00;;;;;12.00;68.34;100903.28;5059209;28;47200;-58
2022/12/28 11:54:36;;;;;;;;;4.00;4.00;;;;;12.08;67.73;100911.06;5059866;28;45154;-58
2022/12/28 11:57:01;;;;;;;;;3.75;3.75;;;;;12.14;67.36;100918.00;5059519;28;45591;-58